createdAt,value
2023-03-23T15:59:59.126Z,16.80
2023-03-23T16:02:27.382Z,16.76
2023-03-23T16:04:56.550Z,16.74
2023-03-23T16:07:25.018Z,16.73
2023-03-23T16:09:53.386Z,16.71
2023-03-23T16:12:21.636Z,16.69
2023-03-23T16:14:50.483Z,16.68
2023-03-23T16:17:20.078Z,16.67
2023-03-23T16:19:50.184Z,16.67
2023-03-23T16:22:18.743Z,16.64
2023-03-23T16:24:50.718Z,16.63
2023-03-23T16:27:21.670Z,16.60
2023-03-23T16:30:02.823Z,16.59
2023-03-23T16:35:03.336Z,16.56
2023-03-23T16:37:34.649Z,16.54
2023-03-23T16:40:03.652Z,16.53
2023-03-23T16:42:32.581Z,16.52
2023-03-23T16:45:01.562Z,16.50
2023-03-23T16:47:30.415Z,16.47
2023-03-23T16:50:06.843Z,16.45
2023-03-23T16:52:35.492Z,16.45
2023-03-23T16:55:15.963Z,16.44
2023-03-23T16:57:44.977Z,16.44
2023-03-23T17:00:16.842Z,16.44
2023-03-23T17:02:45.252Z,16.43
2023-03-23T17:05:14.100Z,16.40
2023-03-23T17:07:42.555Z,16.38
2023-03-23T17:10:15.877Z,16.35
2023-03-23T17:12:45.977Z,16.34
2023-03-23T17:15:15.414Z,16.32
2023-03-23T17:17:45.957Z,16.30
2023-03-23T17:20:14.136Z,16.27
2023-03-23T17:22:42.329Z,16.23
2023-03-23T17:25:12.187Z,16.21
2023-03-23T17:27:41.173Z,16.19
2023-03-23T17:30:15.601Z,16.15
2023-03-23T17:32:49.598Z,16.10
2023-03-23T17:35:17.897Z,16.06
2023-03-23T17:37:49.033Z,16.03
2023-03-23T17:40:17.410Z,16.00
2023-03-23T17:42:45.578Z,15.96
2023-03-23T17:45:15.524Z,15.92
2023-03-23T17:47:44.197Z,15.89
2023-03-23T17:50:18.883Z,15.86
2023-03-23T17:52:47.420Z,15.83
2023-03-23T17:55:15.995Z,15.80
2023-03-23T17:57:45.633Z,15.77
2023-03-23T18:00:15.502Z,15.73
2023-03-23T18:02:44.153Z,15.69
2023-03-23T18:05:12.858Z,15.66
2023-03-23T18:07:41.454Z,15.63
2023-03-23T18:10:13.243Z,15.61
2023-03-23T18:12:41.856Z,15.58
2023-03-23T18:15:10.627Z,15.54
2023-03-23T18:17:38.977Z,15.53
2023-03-23T18:20:07.756Z,15.51
2023-03-23T18:22:37.188Z,15.49
2023-03-23T18:25:06.146Z,15.46
2023-03-23T18:27:34.945Z,15.43
2023-03-23T18:30:04.052Z,15.40
2023-03-23T18:32:38.456Z,15.37
2023-03-23T18:35:08.104Z,15.34
2023-03-23T18:37:37.078Z,15.31
2023-03-23T18:40:07.298Z,15.28
2023-03-23T18:42:36.989Z,15.25
2023-03-23T18:45:05.968Z,15.21
2023-03-23T18:47:34.328Z,15.16
2023-03-23T18:50:02.561Z,15.11
2023-03-23T18:52:32.085Z,15.06
2023-03-23T18:55:00.850Z,15.01
2023-03-23T18:57:29.147Z,14.97
2023-03-23T18:59:57.570Z,14.93
2023-03-23T19:02:25.982Z,14.90
2023-03-23T19:04:54.230Z,14.87
2023-03-23T19:07:22.388Z,14.84
2023-03-23T19:09:50.718Z,14.80
2023-03-23T19:12:23.346Z,14.76
2023-03-23T19:14:52.653Z,14.72
2023-03-23T19:17:20.836Z,14.68
2023-03-23T19:19:52.629Z,14.66
2023-03-23T19:22:21.118Z,14.63
2023-03-23T19:24:49.216Z,14.59
2023-03-23T19:27:21.027Z,14.56
2023-03-23T19:29:49.976Z,14.54
2023-03-23T19:32:18.702Z,14.50
2023-03-23T19:34:51.056Z,14.47
2023-03-23T19:37:20.035Z,14.43
2023-03-23T19:39:48.319Z,14.38
2023-03-23T19:42:18.573Z,14.34
2023-03-23T19:44:47.459Z,14.31
2023-03-23T19:47:16.480Z,14.29
2023-03-23T19:49:45.697Z,14.25
2023-03-23T19:52:15.068Z,14.22
2023-03-23T19:54:46.067Z,14.19
2023-03-23T19:57:14.759Z,14.15
2023-03-23T19:59:44.319Z,14.13
2023-03-23T20:02:12.749Z,14.10
2023-03-23T20:04:41.521Z,14.07
2023-03-23T20:07:10.237Z,14.06
2023-03-23T20:09:38.956Z,14.04
2023-03-23T20:12:10.786Z,14.03
2023-03-23T20:14:45.133Z,14.02
2023-03-23T20:17:14.729Z,14.01
2023-03-23T20:19:45.413Z,13.98
2023-03-23T20:22:14.637Z,13.96
2023-03-23T20:24:43.504Z,13.94
2023-03-23T20:27:16.621Z,13.93
2023-03-23T20:29:45.105Z,13.91
2023-03-23T20:32:17.661Z,13.89
2023-03-23T20:34:49.374Z,13.87
2023-03-23T20:37:20.921Z,13.85
2023-03-23T20:39:50.151Z,13.84
2023-03-23T20:42:18.337Z,13.83
2023-03-23T20:44:47.485Z,13.80
2023-03-23T20:47:18.113Z,13.76
2023-03-23T20:49:53.308Z,13.74
2023-03-23T20:52:23.418Z,13.71
2023-03-23T20:54:55.171Z,13.68
2023-03-23T20:57:23.479Z,13.65
2023-03-23T20:59:55.520Z,13.62
2023-03-23T21:02:26.088Z,13.58
2023-03-23T21:04:58.401Z,13.55
2023-03-23T21:07:27.514Z,13.52
2023-03-23T21:09:56.298Z,13.49
2023-03-23T21:12:32.096Z,13.46
2023-03-23T21:15:01.699Z,13.43
2023-03-23T21:17:30.292Z,13.40
2023-03-23T21:20:08.550Z,13.36
2023-03-23T21:22:36.764Z,13.32
2023-03-23T21:25:05.280Z,13.29
2023-03-23T21:27:33.580Z,13.26
2023-03-23T21:30:03.427Z,13.22
2023-03-23T21:32:32.996Z,13.19
2023-03-23T21:35:03.257Z,13.17
2023-03-23T21:37:31.558Z,13.15
2023-03-23T21:40:01.303Z,13.12
2023-03-23T21:42:32.303Z,13.10
2023-03-23T21:45:03.277Z,13.08
2023-03-23T21:47:32.776Z,13.06
2023-03-23T21:50:02.149Z,13.02
2023-03-23T21:52:32.166Z,13.01
2023-03-23T21:55:02.676Z,13.01
2023-03-23T21:57:31.947Z,12.99
2023-03-23T22:00:14.656Z,12.98
2023-03-23T22:02:45.182Z,12.97
2023-03-23T22:05:13.444Z,12.96
2023-03-23T22:07:46.452Z,12.94
2023-03-23T22:10:15.644Z,12.93
2023-03-23T22:12:43.887Z,12.92
2023-03-23T22:15:18.275Z,12.92
2023-03-23T22:17:47.404Z,12.92
2023-03-23T22:20:15.652Z,12.91
2023-03-23T22:22:46.455Z,12.90
2023-03-23T22:25:14.843Z,12.89
2023-03-23T22:27:43.454Z,12.89
2023-03-23T22:30:12.558Z,12.88
2023-03-23T22:32:42.271Z,12.85
2023-03-23T22:35:12.737Z,12.82
2023-03-23T22:37:41.281Z,12.79
2023-03-23T22:40:11.555Z,12.77
2023-03-23T22:42:40.917Z,12.77
2023-03-23T22:45:09.863Z,12.75
2023-03-23T22:47:38.824Z,12.75
2023-03-23T22:50:08.322Z,12.74
2023-03-23T22:52:37.044Z,12.74
2023-03-23T22:55:08.609Z,12.74
2023-03-23T22:57:37.765Z,12.72
2023-03-23T23:00:14.619Z,12.71
2023-03-23T23:02:44.000Z,12.69
2023-03-23T23:05:12.505Z,12.68
2023-03-23T23:07:42.905Z,12.67
2023-03-23T23:10:11.983Z,12.65
2023-03-23T23:12:42.681Z,12.64
2023-03-23T23:15:20.421Z,12.63
2023-03-23T23:17:48.811Z,12.61
2023-03-23T23:20:18.984Z,12.58
2023-03-23T23:22:49.071Z,12.57
2023-03-23T23:25:17.521Z,12.55
2023-03-23T23:27:46.092Z,12.54
2023-03-23T23:30:14.419Z,12.52
2023-03-23T23:32:52.189Z,12.50
2023-03-23T23:35:26.450Z,12.47
2023-03-23T23:37:55.748Z,12.45
2023-03-23T23:40:24.065Z,12.42
2023-03-23T23:42:53.729Z,12.40
2023-03-23T23:45:22.666Z,12.40
2023-03-23T23:47:57.904Z,12.40
2023-03-23T23:50:26.402Z,12.39
2023-03-23T23:52:54.863Z,12.40
2023-03-23T23:55:23.297Z,12.40
2023-03-23T23:57:51.957Z,12.39
